• Join FlightAware (Why Join?)
  • Login
  • US Flag 
12:31PM EDT


 

Airport Tracker/Info


-or-


 

Live Flight TrackerFlight Track Log ✈ EJA755 ✈ 01-May-2013 ✈ KCLE - KCMH

Flight Track Log - Related Links

Times and Time Zones

All times are in EDT time to prevent confusion due to time zone crossing. See the EJA755 flight status page for this flight to view local times or setup timezone preferences in your user account.

Time Position Orientation Groundspeed Altitude Reporting Facility
EDT Latitude Longitude Course Direction KTS MPH feet Rate Location/Type
06:07PM 41.3961 -81.8703 202° Southwest 186 214 1,800  Level Cleveland Center
06:07PM 41.3667 -81.8864 202° Southwest 226 260 3,600 2,040 Climbing Cleveland Center
06:08PM 41.3081 -81.9211 204° Southwest 238 274 4,900 1,800 Climbing Cleveland Center
06:09PM 41.2347 -81.9528 198° South 264 304 7,300 3,060 Climbing Cleveland Center
06:10PM 41.1553 -81.9703 189° South 283 326 11,100 3,180 Climbing Cleveland Center
06:11PM 41.0589 -81.9986 192° South 325 374 13,700 1,440 Climbing Cleveland Center
06:12PM 40.9564 -82.0239 191° South 367 422 14,000 180 Climbing Cleveland Center
06:13PM 40.8681 -82.0986 213° Southwest 366 421 14,100  Climbing Cleveland Center
06:14PM 40.7958 -82.1986 226° Southwest 377 434 14,000 -1,200 Descending Cleveland Center
06:16PM 40.6547 -82.3917 226° Southwest 370 426 10,500 -1,320 Descending Indianapolis Center
06:17PM 40.5869 -82.4886 227° Southwest 357 411 10,000 -300 Descending Indianapolis Center
06:18PM 40.5358 -82.5628 228° Southwest 347 399 10,000  Level Indianapolis Center
06:18PM 40.5208 -82.5833 226° Southwest 349 402 10,000  Level Indianapolis Center
06:19PM 40.4692 -82.6569 227° Southwest 346 398 10,000  Level Indianapolis Center
06:19PM 40.4542 -82.6769 225° Southwest 350 403 10,000 -420 Level Indianapolis Center
06:20PM 40.4011 -82.7369 221° Southwest 314 361 9,600 -720 Descending Indianapolis Center
06:20PM 40.3853 -82.7500 212° Southwest 305 351 9,300 -1,620 Descending Indianapolis Center
06:21PM 40.3339 -82.8058 220° Southwest 278 320 8,000 -1,800 Descending Indianapolis Center
06:21PM 40.3133 -82.8253 216° Southwest 288 331 7,500 -1,500 Descending Indianapolis Center
06:22PM 40.2731 -82.8700 220° Southwest 281 323 6,500 -1,500 Descending Indianapolis Center
06:22PM 40.2517 -82.8889 214° Southwest 282 325 6,000 -540 Descending Indianapolis Center
06:23PM 40.2125 -82.9314 220° Southwest 274 315 6,000 -120 Level Indianapolis Center
06:24PM 40.1919 -82.9531 219° Southwest 275 316 5,900 -120 Descending Indianapolis Center
06:24PM 40.1514 -82.9981 220° Southwest 281 323 5,900  Level Indianapolis Center
06:25PM 40.1300 -83.0178 215° Southwest 280 322 5,900 -900 Level Indianapolis Center
06:25PM 40.0908 -83.0592 219° Southwest 251 289 5,000 -1,560 Descending Indianapolis Center
06:26PM 40.0725 -83.0753 214° Southwest 269 310 4,300 -1,680 Descending Indianapolis Center
06:26PM 40.0344 -83.0881 194° South 208 239 3,300 -1,500 Descending Indianapolis Center
06:27PM 40.0194 -83.0714 140° Southeast 236 272 2,800 -1,020 Descending Indianapolis Center
06:27PM 40.0089 -83.0306 109° East 182 209 2,300 -720 Descending Indianapolis Center
06:28PM 40.0081 -83.0069 93° East 197 227 2,100 -600 Descending Indianapolis Center
06:28PM 40.0067 -82.9733 93° East 145 167 1,700 -720 Descending Indianapolis Center
06:29PM 40.0056 -82.9539 94° East 166 191 1,400 -420 Descending Indianapolis Center
06:30PM 40.0025 -82.8978 94° East 145 167 1,100 -300 Descending Indianapolis Center